Seremban, Malaysia
Current Conditions -  °F | °C
As of 12:00 PM on Wednesday 28 Jan 2015 (Local Time) from WMKK Reporting Station
Broken Clouds Broken Clouds  
Wind Chill: 88°   Ceiling: 28000
Heat Index: 96°   Visibility: 6mi
Dew Point: 73°   Wind: 2mph
Humidity: 62%   Direction: 90°E
Pressure: 29.85"   Gusts: NA
Location:  2.71°N, 101.95°E
Report Text: WMKK 280400Z 09002KT 9999 FEW018 BKN280 31/23 Q1011 NOSIG
Loading
Personal Weather Stations






























Interactive Weather Map New forecast layout! Learn more

10-Day Weather Forecast

Advertisements
Track Severe Weather on mobile